Terminal Aerodrome Forecast
Issued by NWS

Home | Current Version | Previous Version | Text Only | Print | Product List | Glossary On
Versions: 1 2 3 4 5 6 7 8 9 10 11 12 13 14 15 16 17 18 19 20
462
FTUS41 KPBZ 260521
TAFAGC
TAF
KAGC 260521Z 2606/2706 13004KT P6SM SCT250
     FM261600 17006KT P6SM VCSH BKN060
     FM261900 21010KT 6SM -SHRA VCTS BKN050CB
     FM262300 29009KT P6SM VCSH BKN020
     FM270300 25006KT P6SM BKN060=

USA.gov is the U.S. government's official web portal to all federal, state and local government web resources and services.